sensor_id;sensor_type;location;lat;lon;timestamp;temperature;humidity
17385;DHT22;8810;48.680;8.894;2023-02-01T00:02:11;2.40;99.90
17385;DHT22;8810;48.680;8.894;2023-02-01T00:04:38;2.40;99.90
17385;DHT22;8810;48.680;8.894;2023-02-01T00:07:05;2.40;99.90
17385;DHT22;8810;48.680;8.894;2023-02-01T00:09:32;2.40;99.90
17385;DHT22;8810;48.680;8.894;2023-02-01T00:11:59;2.40;99.90
17385;DHT22;8810;48.680;8.894;2023-02-01T00:14:29;2.40;99.90
17385;DHT22;8810;48.680;8.894;2023-02-01T00:16:57;2.40;99.90
17385;DHT22;8810;48.680;8.894;2023-02-01T00:19:24;2.40;99.90
17385;DHT22;8810;48.680;8.894;2023-02-01T00:21:51;2.40;99.90
17385;DHT22;8810;48.680;8.894;2023-02-01T00:24:18;2.40;99.90
17385;DHT22;8810;48.680;8.894;2023-02-01T00:26:45;2.40;99.90
17385;DHT22;8810;48.680;8.894;2023-02-01T00:29:14;2.40;99.90
17385;DHT22;8810;48.680;8.894;2023-02-01T00:31:43;2.40;99.90
17385;DHT22;8810;48.680;8.894;2023-02-01T00:34:11;2.40;99.90
17385;DHT22;8810;48.680;8.894;2023-02-01T00:36:38;2.40;99.90
17385;DHT22;8810;48.680;8.894;2023-02-01T00:39:05;2.30;99.90
17385;DHT22;8810;48.680;8.894;2023-02-01T00:41:32;2.30;99.90
17385;DHT22;8810;48.680;8.894;2023-02-01T00:43:59;2.30;99.90
17385;DHT22;8810;48.680;8.894;2023-02-01T00:46:27;2.40;99.90
17385;DHT22;8810;48.680;8.894;2023-02-01T00:48:56;2.40;99.90
17385;DHT22;8810;48.680;8.894;2023-02-01T00:51:25;2.40;99.90
17385;DHT22;8810;48.680;8.894;2023-02-01T00:53:53;2.40;99.90
17385;DHT22;8810;48.680;8.894;2023-02-01T00:56:20;2.40;99.90
17385;DHT22;8810;48.680;8.894;2023-02-01T00:58:47;2.40;99.90
17385;DHT22;8810;48.680;8.894;2023-02-01T01:01:16;2.40;99.90
17385;DHT22;8810;48.680;8.894;2023-02-01T01:03:46;2.40;99.90
17385;DHT22;8810;48.680;8.894;2023-02-01T01:06:16;2.40;99.90
17385;DHT22;8810;48.680;8.894;2023-02-01T01:08:44;2.40;99.90
17385;DHT22;8810;48.680;8.894;2023-02-01T01:11:12;2.40;99.90
17385;DHT22;8810;48.680;8.894;2023-02-01T01:13:39;2.40;99.90
17385;DHT22;8810;48.680;8.894;2023-02-01T01:16:08;2.40;99.90
17385;DHT22;8810;48.680;8.894;2023-02-01T01:18:35;2.40;99.90
17385;DHT22;8810;48.680;8.894;2023-02-01T01:21:04;2.40;99.90
17385;DHT22;8810;48.680;8.894;2023-02-01T01:23:33;2.40;99.90
17385;DHT22;8810;48.680;8.894;2023-02-01T01:26:00;2.40;99.90
17385;DHT22;8810;48.680;8.894;2023-02-01T01:28:27;2.40;99.90
17385;DHT22;8810;48.680;8.894;2023-02-01T01:30:54;2.50;99.90
17385;DHT22;8810;48.680;8.894;2023-02-01T01:33:21;2.40;99.90
17385;DHT22;8810;48.680;8.894;2023-02-01T01:35:48;2.50;99.90
17385;DHT22;8810;48.680;8.894;2023-02-01T01:38:15;2.40;99.90
17385;DHT22;8810;48.680;8.894;2023-02-01T01:40:46;2.40;99.90
17385;DHT22;8810;48.680;8.894;2023-02-01T01:43:17;2.40;99.90
17385;DHT22;8810;48.680;8.894;2023-02-01T01:45:45;2.40;99.90
17385;DHT22;8810;48.680;8.894;2023-02-01T01:48:16;2.40;99.90
17385;DHT22;8810;48.680;8.894;2023-02-01T01:50:46;2.50;99.90
17385;DHT22;8810;48.680;8.894;2023-02-01T01:53:18;2.50;99.90
17385;DHT22;8810;48.680;8.894;2023-02-01T01:55:48;2.40;99.90
17385;DHT22;8810;48.680;8.894;2023-02-01T01:58:19;2.50;99.90
17385;DHT22;8810;48.680;8.894;2023-02-01T02:00:46;2.50;99.90
17385;DHT22;8810;48.680;8.894;2023-02-01T02:03:17;2.40;99.90
17385;DHT22;8810;48.680;8.894;2023-02-01T02:05:45;2.40;99.90
17385;DHT22;8810;48.680;8.894;2023-02-01T02:08:12;2.50;99.90
17385;DHT22;8810;48.680;8.894;2023-02-01T02:10:39;2.50;99.90
17385;DHT22;8810;48.680;8.894;2023-02-01T02:13:26;2.50;99.90
17385;DHT22;8810;48.680;8.894;2023-02-01T02:16:06;2.50;99.90
17385;DHT22;8810;48.680;8.894;2023-02-01T02:18:43;2.50;99.90
17385;DHT22;8810;48.680;8.894;2023-02-01T02:21:15;2.60;99.90
17385;DHT22;8810;48.680;8.894;2023-02-01T02:24:17;2.60;99.90
17385;DHT22;8810;48.680;8.894;2023-02-01T02:27:18;2.60;99.90
17385;DHT22;8810;48.680;8.894;2023-02-01T02:30:33;2.60;99.90
17385;DHT22;8810;48.680;8.894;2023-02-01T02:33:38;2.60;99.90
17385;DHT22;8810;48.680;8.894;2023-02-01T02:36:10;2.60;99.90
17385;DHT22;8810;48.680;8.894;2023-02-01T02:38:47;2.60;99.90
17385;DHT22;8810;48.680;8.894;2023-02-01T02:41:19;2.60;99.90
17385;DHT22;8810;48.680;8.894;2023-02-01T02:44:08;2.60;99.90
17385;DHT22;8810;48.680;8.894;2023-02-01T02:46:57;2.70;99.90
17385;DHT22;8810;48.680;8.894;2023-02-01T02:49:51;2.60;99.90
17385;DHT22;8810;48.680;8.894;2023-02-01T02:52:35;2.70;99.90
17385;DHT22;8810;48.680;8.894;2023-02-01T02:55:20;2.60;99.90
17385;DHT22;8810;48.680;8.894;2023-02-01T02:57:48;2.60;99.90
17385;DHT22;8810;48.680;8.894;2023-02-01T03:00:34;2.60;99.90
17385;DHT22;8810;48.680;8.894;2023-02-01T03:03:19;2.60;99.90
17385;DHT22;8810;48.680;8.894;2023-02-01T03:06:13;2.60;99.90
17385;DHT22;8810;48.680;8.894;2023-02-01T03:08:41;2.60;99.90
17385;DHT22;8810;48.680;8.894;2023-02-01T03:11:12;2.60;99.90
17385;DHT22;8810;48.680;8.894;2023-02-01T03:13:43;2.60;99.90
17385;DHT22;8810;48.680;8.894;2023-02-01T03:16:13;2.60;99.90
17385;DHT22;8810;48.680;8.894;2023-02-01T03:18:48;2.60;99.90
17385;DHT22;8810;48.680;8.894;2023-02-01T03:21:20;2.60;99.90
17385;DHT22;8810;48.680;8.894;2023-02-01T03:23:49;2.60;99.90
17385;DHT22;8810;48.680;8.894;2023-02-01T03:26:19;2.60;99.90
17385;DHT22;8810;48.680;8.894;2023-02-01T03:28:52;2.60;99.90
17385;DHT22;8810;48.680;8.894;2023-02-01T03:31:22;2.60;99.90
17385;DHT22;8810;48.680;8.894;2023-02-01T03:33:50;2.60;99.90
17385;DHT22;8810;48.680;8.894;2023-02-01T03:36:25;2.60;99.90
17385;DHT22;8810;48.680;8.894;2023-02-01T03:39:00;2.60;99.90
17385;DHT22;8810;48.680;8.894;2023-02-01T03:41:35;2.60;99.90
17385;DHT22;8810;48.680;8.894;2023-02-01T03:44:09;2.60;99.90
17385;DHT22;8810;48.680;8.894;2023-02-01T03:46:41;2.70;99.90
17385;DHT22;8810;48.680;8.894;2023-02-01T03:49:11;2.70;99.90
17385;DHT22;8810;48.680;8.894;2023-02-01T03:51:42;2.70;99.90
17385;DHT22;8810;48.680;8.894;2023-02-01T03:54:12;2.70;99.90
17385;DHT22;8810;48.680;8.894;2023-02-01T03:56:43;2.70;99.90
17385;DHT22;8810;48.680;8.894;2023-02-01T03:59:10;2.70;99.90
17385;DHT22;8810;48.680;8.894;2023-02-01T04:01:37;2.80;99.90
17385;DHT22;8810;48.680;8.894;2023-02-01T04:04:04;2.80;99.90
17385;DHT22;8810;48.680;8.894;2023-02-01T04:06:31;2.80;99.90
17385;DHT22;8810;48.680;8.894;2023-02-01T04:08:59;2.80;99.90
17385;DHT22;8810;48.680;8.894;2023-02-01T04:11:26;2.80;99.90
17385;DHT22;8810;48.680;8.894;2023-02-01T04:13:54;2.80;99.90
17385;DHT22;8810;48.680;8.894;2023-02-01T04:16:21;2.80;99.90
17385;DHT22;8810;48.680;8.894;2023-02-01T04:18:48;2.90;99.90
17385;DHT22;8810;48.680;8.894;2023-02-01T04:21:15;3.00;99.90
17385;DHT22;8810;48.680;8.894;2023-02-01T04:23:42;3.10;99.90
17385;DHT22;8810;48.680;8.894;2023-02-01T04:26:10;3.10;99.90
17385;DHT22;8810;48.680;8.894;2023-02-01T04:28:37;3.30;99.90
17385;DHT22;8810;48.680;8.894;2023-02-01T04:31:04;3.40;99.90
17385;DHT22;8810;48.680;8.894;2023-02-01T04:33:31;3.40;99.90
17385;DHT22;8810;48.680;8.894;2023-02-01T04:35:57;3.40;99.90
17385;DHT22;8810;48.680;8.894;2023-02-01T04:38:24;3.50;99.90
17385;DHT22;8810;48.680;8.894;2023-02-01T04:40:52;3.60;99.90
17385;DHT22;8810;48.680;8.894;2023-02-01T04:43:20;3.60;99.90
17385;DHT22;8810;48.680;8.894;2023-02-01T04:45:48;3.60;99.90
17385;DHT22;8810;48.680;8.894;2023-02-01T04:48:15;3.60;99.90
17385;DHT22;8810;48.680;8.894;2023-02-01T04:50:43;3.60;99.90
17385;DHT22;8810;48.680;8.894;2023-02-01T04:53:13;3.60;99.90
17385;DHT22;8810;48.680;8.894;2023-02-01T04:55:40;3.60;99.90
17385;DHT22;8810;48.680;8.894;2023-02-01T04:58:07;3.60;99.90
17385;DHT22;8810;48.680;8.894;2023-02-01T05:00:35;3.60;99.90
17385;DHT22;8810;48.680;8.894;2023-02-01T05:03:02;3.60;99.90
17385;DHT22;8810;48.680;8.894;2023-02-01T05:05:29;3.60;99.90
17385;DHT22;8810;48.680;8.894;2023-02-01T05:07:56;3.60;99.90
17385;DHT22;8810;48.680;8.894;2023-02-01T05:10:23;3.60;99.90
17385;DHT22;8810;48.680;8.894;2023-02-01T05:12:49;3.60;99.90
17385;DHT22;8810;48.680;8.894;2023-02-01T05:15:35;3.70;99.90
17385;DHT22;8810;48.680;8.894;2023-02-01T05:18:02;3.70;99.90
17385;DHT22;8810;48.680;8.894;2023-02-01T05:20:29;3.70;99.90
17385;DHT22;8810;48.680;8.894;2023-02-01T05:22:56;3.80;99.90
17385;DHT22;8810;48.680;8.894;2023-02-01T05:25:23;3.80;99.90
17385;DHT22;8810;48.680;8.894;2023-02-01T05:27:50;3.80;99.90
17385;DHT22;8810;48.680;8.894;2023-02-01T05:30:16;3.80;99.90
17385;DHT22;8810;48.680;8.894;2023-02-01T05:32:45;3.80;99.90
17385;DHT22;8810;48.680;8.894;2023-02-01T05:35:12;3.80;99.90
17385;DHT22;8810;48.680;8.894;2023-02-01T05:37:38;3.80;99.90
17385;DHT22;8810;48.680;8.894;2023-02-01T05:40:06;3.80;99.90
17385;DHT22;8810;48.680;8.894;2023-02-01T05:42:33;3.80;99.90
17385;DHT22;8810;48.680;8.894;2023-02-01T05:45:00;3.80;99.90
17385;DHT22;8810;48.680;8.894;2023-02-01T05:47:27;3.70;99.90
17385;DHT22;8810;48.680;8.894;2023-02-01T05:49:55;3.70;99.90
17385;DHT22;8810;48.680;8.894;2023-02-01T05:52:22;3.70;99.90
17385;DHT22;8810;48.680;8.894;2023-02-01T05:54:49;3.60;99.90
17385;DHT22;8810;48.680;8.894;2023-02-01T05:57:16;3.60;99.90
17385;DHT22;8810;48.680;8.894;2023-02-01T05:59:43;3.60;99.90
17385;DHT22;8810;48.680;8.894;2023-02-01T06:02:11;3.60;99.90
17385;DHT22;8810;48.680;8.894;2023-02-01T06:04:38;3.60;99.90
17385;DHT22;8810;48.680;8.894;2023-02-01T06:07:07;3.60;99.90
17385;DHT22;8810;48.680;8.894;2023-02-01T06:09:34;3.60;99.90
17385;DHT22;8810;48.680;8.894;2023-02-01T06:12:01;3.50;99.90
17385;DHT22;8810;48.680;8.894;2023-02-01T06:14:28;3.50;99.90
17385;DHT22;8810;48.680;8.894;2023-02-01T06:16:55;3.50;99.90
17385;DHT22;8810;48.680;8.894;2023-02-01T06:19:22;3.40;99.90
17385;DHT22;8810;48.680;8.894;2023-02-01T06:21:49;3.40;99.90
17385;DHT22;8810;48.680;8.894;2023-02-01T06:24:17;3.40;99.90
17385;DHT22;8810;48.680;8.894;2023-02-01T06:26:44;3.40;99.90
17385;DHT22;8810;48.680;8.894;2023-02-01T06:29:12;3.40;99.90
17385;DHT22;8810;48.680;8.894;2023-02-01T06:31:39;3.40;99.90
17385;DHT22;8810;48.680;8.894;2023-02-01T06:34:08;3.50;99.90
17385;DHT22;8810;48.680;8.894;2023-02-01T06:36:35;3.60;99.90
17385;DHT22;8810;48.680;8.894;2023-02-01T06:39:01;3.70;99.90
17385;DHT22;8810;48.680;8.894;2023-02-01T06:41:30;3.80;99.90
17385;DHT22;8810;48.680;8.894;2023-02-01T06:44:00;3.80;99.90
17385;DHT22;8810;48.680;8.894;2023-02-01T06:46:27;3.90;99.90
17385;DHT22;8810;48.680;8.894;2023-02-01T06:48:54;3.90;99.90
17385;DHT22;8810;48.680;8.894;2023-02-01T06:51:23;3.90;99.90
17385;DHT22;8810;48.680;8.894;2023-02-01T06:53:50;3.90;99.90
17385;DHT22;8810;48.680;8.894;2023-02-01T06:56:17;3.90;99.90
17385;DHT22;8810;48.680;8.894;2023-02-01T06:58:45;3.90;99.90
17385;DHT22;8810;48.680;8.894;2023-02-01T07:01:13;4.00;99.90
17385;DHT22;8810;48.680;8.894;2023-02-01T07:03:40;4.00;99.90
17385;DHT22;8810;48.680;8.894;2023-02-01T07:06:07;4.00;99.90
17385;DHT22;8810;48.680;8.894;2023-02-01T07:08:36;4.00;99.90
17385;DHT22;8810;48.680;8.894;2023-02-01T07:11:05;4.00;99.90
17385;DHT22;8810;48.680;8.894;2023-02-01T07:13:32;4.00;99.90
17385;DHT22;8810;48.680;8.894;2023-02-01T07:16:02;4.00;99.90
17385;DHT22;8810;48.680;8.894;2023-02-01T07:18:29;4.00;99.90
17385;DHT22;8810;48.680;8.894;2023-02-01T07:20:57;4.00;99.90
17385;DHT22;8810;48.680;8.894;2023-02-01T07:23:24;4.00;99.90
17385;DHT22;8810;48.680;8.894;2023-02-01T07:25:53;4.00;99.90
17385;DHT22;8810;48.680;8.894;2023-02-01T07:28:21;4.00;99.90
17385;DHT22;8810;48.680;8.894;2023-02-01T07:30:47;4.00;99.90
17385;DHT22;8810;48.680;8.894;2023-02-01T07:33:18;4.00;99.90
17385;DHT22;8810;48.680;8.894;2023-02-01T07:35:46;4.00;99.90
17385;DHT22;8810;48.680;8.894;2023-02-01T07:38:13;4.00;99.90
17385;DHT22;8810;48.680;8.894;2023-02-01T07:40:40;4.00;99.90
17385;DHT22;8810;48.680;8.894;2023-02-01T07:43:07;4.00;99.90
17385;DHT22;8810;48.680;8.894;2023-02-01T07:45:34;4.00;99.90
17385;DHT22;8810;48.680;8.894;2023-02-01T07:48:01;4.10;99.90
17385;DHT22;8810;48.680;8.894;2023-02-01T07:50:30;4.00;99.90
17385;DHT22;8810;48.680;8.894;2023-02-01T07:52:59;4.10;99.90
17385;DHT22;8810;48.680;8.894;2023-02-01T07:55:26;4.10;99.90
17385;DHT22;8810;48.680;8.894;2023-02-01T07:57:56;4.10;99.90
17385;DHT22;8810;48.680;8.894;2023-02-01T08:00:23;4.10;99.90
17385;DHT22;8810;48.680;8.894;2023-02-01T08:03:08;4.20;99.90
17385;DHT22;8810;48.680;8.894;2023-02-01T08:05:36;4.20;99.90
17385;DHT22;8810;48.680;8.894;2023-02-01T08:08:03;4.20;99.90
17385;DHT22;8810;48.680;8.894;2023-02-01T08:10:30;4.20;99.90
17385;DHT22;8810;48.680;8.894;2023-02-01T08:12:58;4.20;99.90
17385;DHT22;8810;48.680;8.894;2023-02-01T08:15:26;4.20;99.90
17385;DHT22;8810;48.680;8.894;2023-02-01T08:17:53;4.30;99.90
17385;DHT22;8810;48.680;8.894;2023-02-01T08:20:21;4.30;99.90
17385;DHT22;8810;48.680;8.894;2023-02-01T08:22:50;4.40;99.90
17385;DHT22;8810;48.680;8.894;2023-02-01T08:25:17;4.40;99.90
17385;DHT22;8810;48.680;8.894;2023-02-01T08:27:44;4.40;99.90
17385;DHT22;8810;48.680;8.894;2023-02-01T08:30:12;4.40;99.90
17385;DHT22;8810;48.680;8.894;2023-02-01T08:32:39;4.40;99.90
17385;DHT22;8810;48.680;8.894;2023-02-01T08:35:07;4.40;99.90
17385;DHT22;8810;48.680;8.894;2023-02-01T08:37:34;4.40;99.90
17385;DHT22;8810;48.680;8.894;2023-02-01T08:40:04;4.40;99.90
17385;DHT22;8810;48.680;8.894;2023-02-01T08:42:31;4.40;99.90
17385;DHT22;8810;48.680;8.894;2023-02-01T08:45:15;4.50;99.90
17385;DHT22;8810;48.680;8.894;2023-02-01T08:47:42;4.50;99.90
17385;DHT22;8810;48.680;8.894;2023-02-01T08:50:10;4.50;99.90
17385;DHT22;8810;48.680;8.894;2023-02-01T08:52:37;4.50;99.90
17385;DHT22;8810;48.680;8.894;2023-02-01T08:55:06;4.60;99.90
17385;DHT22;8810;48.680;8.894;2023-02-01T08:57:33;4.60;99.90
17385;DHT22;8810;48.680;8.894;2023-02-01T09:00:00;4.70;99.90
17385;DHT22;8810;48.680;8.894;2023-02-01T09:02:27;4.60;99.90
17385;DHT22;8810;48.680;8.894;2023-02-01T09:04:56;4.60;99.90
17385;DHT22;8810;48.680;8.894;2023-02-01T09:07:23;4.60;99.90
17385;DHT22;8810;48.680;8.894;2023-02-01T09:09:49;4.60;99.90
17385;DHT22;8810;48.680;8.894;2023-02-01T09:12:18;4.60;99.90
17385;DHT22;8810;48.680;8.894;2023-02-01T09:14:45;4.50;99.90
17385;DHT22;8810;48.680;8.894;2023-02-01T09:17:11;4.60;99.90
17385;DHT22;8810;48.680;8.894;2023-02-01T09:19:39;4.60;99.90
17385;DHT22;8810;48.680;8.894;2023-02-01T09:22:06;4.60;99.90
17385;DHT22;8810;48.680;8.894;2023-02-01T09:24:33;4.50;99.90
17385;DHT22;8810;48.680;8.894;2023-02-01T09:27:00;4.50;99.90
17385;DHT22;8810;48.680;8.894;2023-02-01T09:29:28;4.50;99.90
17385;DHT22;8810;48.680;8.894;2023-02-01T09:31:55;4.60;99.90
17385;DHT22;8810;48.680;8.894;2023-02-01T09:34:22;4.60;99.90
17385;DHT22;8810;48.680;8.894;2023-02-01T09:36:49;4.60;99.90
17385;DHT22;8810;48.680;8.894;2023-02-01T09:39:16;4.60;99.90
17385;DHT22;8810;48.680;8.894;2023-02-01T09:41:51;4.60;99.90
17385;DHT22;8810;48.680;8.894;2023-02-01T09:44:37;4.60;99.90
17385;DHT22;8810;48.680;8.894;2023-02-01T09:47:12;4.60;99.90
17385;DHT22;8810;48.680;8.894;2023-02-01T09:49:46;4.70;99.90
17385;DHT22;8810;48.680;8.894;2023-02-01T09:52:17;4.70;99.90
17385;DHT22;8810;48.680;8.894;2023-02-01T09:54:51;4.70;99.90
17385;DHT22;8810;48.680;8.894;2023-02-01T09:57:25;4.70;99.90
17385;DHT22;8810;48.680;8.894;2023-02-01T10:00:00;4.70;99.90
17385;DHT22;8810;48.680;8.894;2023-02-01T10:02:28;4.80;99.90
17385;DHT22;8810;48.680;8.894;2023-02-01T10:04:58;4.80;99.90
17385;DHT22;8810;48.680;8.894;2023-02-01T10:07:33;4.90;99.90
17385;DHT22;8810;48.680;8.894;2023-02-01T10:10:11;4.90;99.90
17385;DHT22;8810;48.680;8.894;2023-02-01T10:12:53;5.00;99.90
17385;DHT22;8810;48.680;8.894;2023-02-01T10:15:36;5.00;99.90
17385;DHT22;8810;48.680;8.894;2023-02-01T10:18:20;5.10;99.90
17385;DHT22;8810;48.680;8.894;2023-02-01T10:20:57;5.10;99.90
17385;DHT22;8810;48.680;8.894;2023-02-01T10:23:56;5.20;99.90
17385;DHT22;8810;48.680;8.894;2023-02-01T10:26:30;5.20;99.90
17385;DHT22;8810;48.680;8.894;2023-02-01T10:29:01;5.30;99.90
17385;DHT22;8810;48.680;8.894;2023-02-01T10:31:32;5.40;99.90
17385;DHT22;8810;48.680;8.894;2023-02-01T10:34:06;5.40;99.90
17385;DHT22;8810;48.680;8.894;2023-02-01T10:36:41;5.50;99.90
17385;DHT22;8810;48.680;8.894;2023-02-01T10:39:10;5.50;99.90
17385;DHT22;8810;48.680;8.894;2023-02-01T10:41:39;5.50;99.90
17385;DHT22;8810;48.680;8.894;2023-02-01T10:44:12;5.50;99.90
17385;DHT22;8810;48.680;8.894;2023-02-01T10:46:41;5.50;99.90
17385;DHT22;8810;48.680;8.894;2023-02-01T10:49:13;5.50;99.90
17385;DHT22;8810;48.680;8.894;2023-02-01T10:51:47;5.50;99.90
17385;DHT22;8810;48.680;8.894;2023-02-01T10:54:18;5.50;99.90
17385;DHT22;8810;48.680;8.894;2023-02-01T10:56:48;5.50;99.90
17385;DHT22;8810;48.680;8.894;2023-02-01T10:59:16;5.50;99.90
17385;DHT22;8810;48.680;8.894;2023-02-01T11:01:47;5.50;99.90
17385;DHT22;8810;48.680;8.894;2023-02-01T11:04:15;5.50;99.90
17385;DHT22;8810;48.680;8.894;2023-02-01T11:06:44;5.50;99.90
17385;DHT22;8810;48.680;8.894;2023-02-01T11:09:18;5.50;99.90
17385;DHT22;8810;48.680;8.894;2023-02-01T11:11:58;5.40;99.90
17385;DHT22;8810;48.680;8.894;2023-02-01T11:14:38;5.30;99.90
17385;DHT22;8810;48.680;8.894;2023-02-01T11:17:28;5.30;99.90
17385;DHT22;8810;48.680;8.894;2023-02-01T11:20:00;5.30;99.90
17385;DHT22;8810;48.680;8.894;2023-02-01T11:22:27;5.30;99.90
17385;DHT22;8810;48.680;8.894;2023-02-01T11:24:56;5.30;99.90
17385;DHT22;8810;48.680;8.894;2023-02-01T11:27:24;5.40;99.90
17385;DHT22;8810;48.680;8.894;2023-02-01T11:29:53;5.60;99.90
17385;DHT22;8810;48.680;8.894;2023-02-01T11:32:22;5.60;99.90
17385;DHT22;8810;48.680;8.894;2023-02-01T11:34:56;5.70;99.90
17385;DHT22;8810;48.680;8.894;2023-02-01T11:37:26;5.70;99.90
17385;DHT22;8810;48.680;8.894;2023-02-01T11:39:55;5.70;99.90
17385;DHT22;8810;48.680;8.894;2023-02-01T11:42:22;5.70;99.90
17385;DHT22;8810;48.680;8.894;2023-02-01T11:44:49;5.70;99.90
17385;DHT22;8810;48.680;8.894;2023-02-01T11:47:25;5.70;99.90
17385;DHT22;8810;48.680;8.894;2023-02-01T11:49:55;5.60;99.90
17385;DHT22;8810;48.680;8.894;2023-02-01T11:52:36;5.60;99.90
17385;DHT22;8810;48.680;8.894;2023-02-01T11:55:24;5.60;99.90
17385;DHT22;8810;48.680;8.894;2023-02-01T11:58:06;5.60;99.90
17385;DHT22;8810;48.680;8.894;2023-02-01T12:00:47;5.60;99.90
17385;DHT22;8810;48.680;8.894;2023-02-01T12:03:41;5.70;99.90
17385;DHT22;8810;48.680;8.894;2023-02-01T12:06:20;5.60;99.90
17385;DHT22;8810;48.680;8.894;2023-02-01T12:11:55;5.50;99.90
17385;DHT22;8810;48.680;8.894;2023-02-01T12:14:36;5.50;99.90
17385;DHT22;8810;48.680;8.894;2023-02-01T12:17:26;5.50;99.90
17385;DHT22;8810;48.680;8.894;2023-02-01T12:20:07;5.40;99.90
17385;DHT22;8810;48.680;8.894;2023-02-01T12:22:48;5.50;99.90
17385;DHT22;8810;48.680;8.894;2023-02-01T12:25:34;5.50;99.90
17385;DHT22;8810;48.680;8.894;2023-02-01T12:28:22;5.60;99.90
17385;DHT22;8810;48.680;8.894;2023-02-01T12:31:27;5.60;99.90
17385;DHT22;8810;48.680;8.894;2023-02-01T12:34:10;5.50;99.90
17385;DHT22;8810;48.680;8.894;2023-02-01T12:36:45;5.40;99.90
17385;DHT22;8810;48.680;8.894;2023-02-01T12:39:22;5.40;99.90
17385;DHT22;8810;48.680;8.894;2023-02-01T12:41:57;5.40;99.90
17385;DHT22;8810;48.680;8.894;2023-02-01T12:44:35;5.30;99.90
17385;DHT22;8810;48.680;8.894;2023-02-01T12:47:08;5.30;99.90
17385;DHT22;8810;48.680;8.894;2023-02-01T12:49:47;5.30;99.90
17385;DHT22;8810;48.680;8.894;2023-02-01T12:52:20;5.30;99.90
17385;DHT22;8810;48.680;8.894;2023-02-01T12:54:55;5.30;99.90
17385;DHT22;8810;48.680;8.894;2023-02-01T12:57:26;5.30;99.90
17385;DHT22;8810;48.680;8.894;2023-02-01T12:59:57;5.30;99.90
17385;DHT22;8810;48.680;8.894;2023-02-01T13:02:30;5.20;99.90
17385;DHT22;8810;48.680;8.894;2023-02-01T13:05:11;5.20;99.90
17385;DHT22;8810;48.680;8.894;2023-02-01T13:07:42;5.20;99.90
17385;DHT22;8810;48.680;8.894;2023-02-01T13:10:16;5.20;99.90
17385;DHT22;8810;48.680;8.894;2023-02-01T13:12:49;5.10;99.90
17385;DHT22;8810;48.680;8.894;2023-02-01T13:15:21;5.10;99.90
17385;DHT22;8810;48.680;8.894;2023-02-01T13:17:51;5.10;99.90
17385;DHT22;8810;48.680;8.894;2023-02-01T13:20:24;5.10;99.90
17385;DHT22;8810;48.680;8.894;2023-02-01T13:22:57;5.10;99.90
17385;DHT22;8810;48.680;8.894;2023-02-01T13:25:33;5.10;99.90
17385;DHT22;8810;48.680;8.894;2023-02-01T13:28:06;5.00;99.90
17385;DHT22;8810;48.680;8.894;2023-02-01T13:30:53;5.00;99.90
17385;DHT22;8810;48.680;8.894;2023-02-01T13:36:37;4.90;99.90
17385;DHT22;8810;48.680;8.894;2023-02-01T13:39:34;4.90;99.90
17385;DHT22;8810;48.680;8.894;2023-02-01T13:42:13;4.90;99.90
17385;DHT22;8810;48.680;8.894;2023-02-01T13:44:45;4.80;99.90
17385;DHT22;8810;48.680;8.894;2023-02-01T13:47:22;4.90;99.90
17385;DHT22;8810;48.680;8.894;2023-02-01T13:49:50;4.90;99.90
17385;DHT22;8810;48.680;8.894;2023-02-01T13:52:25;4.90;99.90
17385;DHT22;8810;48.680;8.894;2023-02-01T13:55:03;4.90;99.90
17385;DHT22;8810;48.680;8.894;2023-02-01T13:57:42;4.90;99.90
17385;DHT22;8810;48.680;8.894;2023-02-01T14:00:24;5.00;99.90
17385;DHT22;8810;48.680;8.894;2023-02-01T14:03:11;5.00;99.90
17385;DHT22;8810;48.680;8.894;2023-02-01T14:09:17;5.10;99.90
17385;DHT22;8810;48.680;8.894;2023-02-01T14:11:47;5.10;99.90
17385;DHT22;8810;48.680;8.894;2023-02-01T14:14:47;5.10;99.90
17385;DHT22;8810;48.680;8.894;2023-02-01T14:17:35;5.20;99.90
17385;DHT22;8810;48.680;8.894;2023-02-01T14:23:12;5.10;99.90
17385;DHT22;8810;48.680;8.894;2023-02-01T14:25:41;5.10;99.90
17385;DHT22;8810;48.680;8.894;2023-02-01T14:28:16;5.10;99.90
17385;DHT22;8810;48.680;8.894;2023-02-01T14:30:49;5.10;99.90
17385;DHT22;8810;48.680;8.894;2023-02-01T14:33:21;5.10;99.90
17385;DHT22;8810;48.680;8.894;2023-02-01T14:36:10;5.00;99.90
17385;DHT22;8810;48.680;8.894;2023-02-01T14:38:38;5.10;99.90
17385;DHT22;8810;48.680;8.894;2023-02-01T14:41:30;5.10;99.90
17385;DHT22;8810;48.680;8.894;2023-02-01T14:44:28;5.10;99.90
17385;DHT22;8810;48.680;8.894;2023-02-01T14:50:15;5.00;99.90
17385;DHT22;8810;48.680;8.894;2023-02-01T14:52:46;5.10;99.90
17385;DHT22;8810;48.680;8.894;2023-02-01T14:55:16;5.10;99.90
17385;DHT22;8810;48.680;8.894;2023-02-01T14:57:48;5.10;99.90
17385;DHT22;8810;48.680;8.894;2023-02-01T15:00:21;5.10;99.90
17385;DHT22;8810;48.680;8.894;2023-02-01T15:02:51;5.10;99.90
17385;DHT22;8810;48.680;8.894;2023-02-01T15:05:28;5.20;99.90
17385;DHT22;8810;48.680;8.894;2023-02-01T15:08:05;5.10;99.90
17385;DHT22;8810;48.680;8.894;2023-02-01T15:10:33;5.10;99.90
17385;DHT22;8810;48.680;8.894;2023-02-01T15:13:18;5.10;99.90
17385;DHT22;8810;48.680;8.894;2023-02-01T15:15:45;5.20;99.90
17385;DHT22;8810;48.680;8.894;2023-02-01T15:18:27;5.20;99.90
17385;DHT22;8810;48.680;8.894;2023-02-01T15:20:56;5.20;99.90
17385;DHT22;8810;48.680;8.894;2023-02-01T15:23:25;5.20;99.90
17385;DHT22;8810;48.680;8.894;2023-02-01T15:25:52;5.20;99.90
17385;DHT22;8810;48.680;8.894;2023-02-01T15:28:26;5.20;99.90
17385;DHT22;8810;48.680;8.894;2023-02-01T15:30:58;5.10;99.90
17385;DHT22;8810;48.680;8.894;2023-02-01T15:33:28;5.10;99.90
17385;DHT22;8810;48.680;8.894;2023-02-01T15:36:07;5.00;99.90
17385;DHT22;8810;48.680;8.894;2023-02-01T15:38:38;5.00;99.90
17385;DHT22;8810;48.680;8.894;2023-02-01T15:41:11;5.00;99.90
17385;DHT22;8810;48.680;8.894;2023-02-01T15:43:41;5.00;99.90
17385;DHT22;8810;48.680;8.894;2023-02-01T15:46:10;5.00;99.90
17385;DHT22;8810;48.680;8.894;2023-02-01T15:48:43;5.00;99.90
17385;DHT22;8810;48.680;8.894;2023-02-01T15:51:18;5.00;99.90
17385;DHT22;8810;48.680;8.894;2023-02-01T15:53:48;5.00;99.90
17385;DHT22;8810;48.680;8.894;2023-02-01T15:56:22;5.00;99.90
17385;DHT22;8810;48.680;8.894;2023-02-01T15:58:53;5.00;99.90
17385;DHT22;8810;48.680;8.894;2023-02-01T16:01:20;4.90;99.90
17385;DHT22;8810;48.680;8.894;2023-02-01T16:03:49;4.90;99.90
17385;DHT22;8810;48.680;8.894;2023-02-01T16:06:28;4.90;99.90
17385;DHT22;8810;48.680;8.894;2023-02-01T16:09:01;4.90;99.90
17385;DHT22;8810;48.680;8.894;2023-02-01T16:11:29;4.80;99.90
17385;DHT22;8810;48.680;8.894;2023-02-01T16:13:57;4.80;99.90
17385;DHT22;8810;48.680;8.894;2023-02-01T16:16:24;4.80;99.90
17385;DHT22;8810;48.680;8.894;2023-02-01T16:18:52;4.80;99.90
17385;DHT22;8810;48.680;8.894;2023-02-01T16:21:19;4.80;99.90
17385;DHT22;8810;48.680;8.894;2023-02-01T16:23:50;4.70;99.90
17385;DHT22;8810;48.680;8.894;2023-02-01T16:26:18;4.80;99.90
17385;DHT22;8810;48.680;8.894;2023-02-01T16:28:45;4.80;99.90
17385;DHT22;8810;48.680;8.894;2023-02-01T16:31:14;4.70;99.90
17385;DHT22;8810;48.680;8.894;2023-02-01T16:33:48;4.80;99.90
17385;DHT22;8810;48.680;8.894;2023-02-01T16:36:17;4.70;99.90
17385;DHT22;8810;48.680;8.894;2023-02-01T16:38:44;4.70;99.90
17385;DHT22;8810;48.680;8.894;2023-02-01T16:41:13;4.70;99.90
17385;DHT22;8810;48.680;8.894;2023-02-01T16:43:40;4.70;99.90
17385;DHT22;8810;48.680;8.894;2023-02-01T16:46:12;4.70;99.90
17385;DHT22;8810;48.680;8.894;2023-02-01T16:48:41;4.70;99.90